Time;durP1;ratioP1;P1;durP2;ratioP2;P2;SDS_P1;SDS_P2;PMS_P1;PMS_P2;Temp;Humidity;BMP_temperature;BMP_pressure;BME280_temperature;BME280_humidity;BME280_pressure;Samples;Min_cycle;Max_cycle;Signal;HPM_P1;HPM_P2
2022/11/06 00:01:42;;;;;;;23.22;14.53;;;;;;;6.52;99.55;100706.85;3009877;76;21031;-60
2022/11/06 00:10:08;;;;;;;16.32;12.43;;;;;;;6.66;99.69;100702.91;3004926;77;21051;-63
2022/11/06 00:14:11;;;;;;;20.00;11.73;;;;;;;6.72;99.05;100703.03;3030723;76;20999;-60
2022/11/06 00:18:12;;;;;;;19.20;10.60;;;;;;;6.74;98.73;100701.63;3007625;77;20967;-61
2022/11/06 00:22:15;;;;;;;22.17;11.57;;;;;;;6.75;98.27;100709.94;3058719;76;21015;-61
2022/11/06 00:26:29;;;;;;;17.50;11.33;;;;;;;6.77;98.18;100710.70;3009367;77;21003;-60
2022/11/06 00:30:31;;;;;;;14.38;8.08;;;;;;;6.75;97.75;100704.16;2978919;77;20975;-60
2022/11/06 00:34:32;;;;;;;13.83;10.48;;;;;;;6.77;97.73;100706.24;3054296;76;21031;-60
2022/11/06 00:38:34;;;;;;;12.58;7.22;;;;;;;6.77;97.11;100702.27;3067324;75;20999;-61
2022/11/06 00:42:35;;;;;;;10.63;7.67;;;;;;;6.76;97.03;100705.86;3077653;75;20969;-61
2022/11/06 00:46:39;;;;;;;14.33;9.05;;;;;;;6.75;96.85;100710.77;2976066;77;21007;-61
2022/11/06 00:50:46;;;;;;;8.98;6.40;;;;;;;6.75;96.50;100706.80;3029643;77;21071;-63
2022/11/06 00:54:48;;;;;;;11.65;8.10;;;;;;;6.68;95.96;100708.98;3033817;77;21068;-61
2022/11/06 00:58:50;;;;;;;11.53;7.65;;;;;;;6.64;96.35;100707.44;2912269;80;21071;-61
2022/11/06 01:02:51;;;;;;;22.52;8.50;;;;;;;6.63;96.93;100705.73;2904772;79;21009;-60
2022/11/06 01:06:55;;;;;;;15.75;9.15;;;;;;;6.66;97.35;100706.05;3045648;75;21016;-63
2022/11/06 01:10:57;;;;;;;19.00;9.30;;;;;;;6.67;97.58;100707.25;3023688;77;21134;-61
2022/11/06 01:14:58;;;;;;;24.50;9.70;;;;;;;6.68;97.19;100712.95;2871035;79;21065;-63
2022/11/06 01:19:00;;;;;;;10.48;7.10;;;;;;;6.70;97.36;100719.45;3043490;76;20925;-60
2022/11/06 01:23:02;;;;;;;22.50;11.20;;;;;;;6.71;97.58;100711.45;3031200;76;21006;-60
2022/11/06 01:27:05;;;;;;;16.85;9.10;;;;;;;6.73;97.52;100707.86;2994951;77;20976;-64
2022/11/06 01:31:11;;;;;;;19.90;9.10;;;;;;;6.73;97.23;100706.05;3030832;76;20940;-64
2022/11/06 01:35:12;;;;;;;12.28;9.10;;;;;;;6.67;96.05;100709.90;3021331;77;21117;-60
2022/11/06 01:39:15;;;;;;;20.72;9.90;;;;;;;6.56;96.04;100708.37;3045997;77;20972;-59
2022/11/06 01:43:22;;;;;;;12.10;8.20;;;;;;;6.54;96.27;100706.30;3049873;77;21049;-60
2022/11/06 01:47:27;;;;;;;15.60;9.20;;;;;;;6.54;96.84;100703.65;3022840;76;21023;-61
2022/11/06 01:51:51;;;;;;;11.97;8.80;;;;;;;6.54;96.19;100701.84;3059239;77;20992;-59
2022/11/06 01:56:06;;;;;;;10.00;8.88;;;;;;;6.53;96.41;100702.78;3025835;77;21019;-59
2022/11/06 02:00:09;;;;;;;10.88;8.50;;;;;;;6.55;96.52;100699.58;2985848;77;20987;-62
2022/11/06 02:04:16;;;;;;;18.35;8.23;;;;;;;6.52;95.83;100692.32;2993044;77;21018;-60
2022/11/06 02:08:33;;;;;;;12.07;6.37;;;;;;;6.51;95.97;100693.26;3040107;77;21011;-60
2022/11/06 02:13:13;;;;;;;9.98;6.50;;;;;;;6.46;95.40;100693.98;3013153;77;21015;-60
2022/11/06 02:17:49;;;;;;;14.87;7.22;;;;;;;6.44;95.82;100696.73;3044145;77;20995;-61
2022/11/06 02:22:04;;;;;;;12.05;7.58;;;;;;;6.45;96.47;100694.92;3020977;74;20986;-60
2022/11/06 02:26:54;;;;;;;17.27;8.05;;;;;;;6.39;95.18;100697.47;3002494;76;21015;-65
2022/11/06 02:30:59;;;;;;;20.27;10.63;;;;;;;6.27;95.20;100701.64;3017236;77;20991;-60
2022/11/06 02:35:06;;;;;;;13.60;9.47;;;;;;;6.16;96.24;100696.14;3003362;77;20949;-61
2022/11/06 02:39:14;;;;;;;13.78;8.75;;;;;;;6.16;96.24;100696.14;3051681;77;21390;-60
2022/11/06 02:43:17;;;;;;;12.85;7.72;;;;;;;6.09;95.95;100687.25;3024079;77;21012;-60
2022/11/06 02:47:21;;;;;;;12.88;6.70;;;;;;;5.89;97.57;100695.38;3022665;77;21036;-60
2022/11/06 02:51:27;;;;;;;8.48;7.12;;;;;;;5.73;100.00;100702.85;2921217;79;20924;-61
2022/11/06 02:55:43;;;;;;;7.03;5.70;;;;;;;5.63;100.00;100700.31;3038040;77;20975;-59
2022/11/06 02:59:53;;;;;;;9.40;7.33;;;;;;;5.47;100.00;100699.82;3040040;76;20940;-60
2022/11/06 03:03:59;;;;;;;6.60;5.53;;;;;;;5.36;100.00;100701.72;2982784;76;20963;-60
2022/11/06 03:08:26;;;;;;;17.62;10.82;;;;;;;5.29;100.00;100691.12;2985412;77;20983;-60
2022/11/06 03:12:38;;;;;;;8.85;6.90;;;;;;;5.36;100.00;100689.02;3010545;77;20983;-61
2022/11/06 03:17:10;;;;;;;17.37;10.15;;;;;;;5.27;100.00;100693.83;3028172;77;21019;-60
2022/11/06 03:21:29;;;;;;;10.53;7.83;;;;;;;5.16;100.00;100698.84;3001866;77;21051;-60
2022/11/06 03:25:48;;;;;;;19.42;10.60;;;;;;;5.18;100.00;100689.50;2929618;80;21003;-60
2022/11/06 03:29:55;;;;;;;9.93;8.73;;;;;;;5.19;100.00;100686.80;2910633;80;21524;-62
2022/11/06 03:34:19;;;;;;;13.90;11.95;;;;;;;5.26;100.00;100688.17;3028093;77;21082;-60
2022/11/06 03:38:31;;;;;;;13.13;7.60;;;;;;;5.30;100.00;100687.55;3047272;76;21034;-61
2022/11/06 03:42:33;;;;;;;6.58;5.33;;;;;;;5.27;100.00;100689.87;3022615;77;21007;-61
2022/11/06 03:46:39;;;;;;;8.75;6.60;;;;;;;5.10;100.00;100689.91;3024197;76;21079;-61
2022/11/06 03:50:55;;;;;;;9.53;5.72;;;;;;;4.91;100.00;100686.91;3020857;77;21047;-63
2022/11/06 03:55:05;;;;;;;9.53;5.90;;;;;;;4.74;100.00;100693.06;3038106;76;20953;-62
2022/11/06 03:59:08;;;;;;;7.55;5.78;;;;;;;4.60;100.00;100693.77;3054236;76;20962;-60
2022/11/06 04:03:24;;;;;;;7.00;4.80;;;;;;;4.53;100.00;100689.74;3055256;75;20948;-62
2022/11/06 04:07:30;;;;;;;8.27;5.77;;;;;;;4.47;100.00;100690.89;3042258;77;21039;-61
2022/11/06 04:16:01;;;;;;;14.03;7.40;;;;;;;4.53;100.00;100696.33;3069642;76;20937;-61
2022/11/06 04:20:07;;;;;;;11.28;6.58;;;;;;;4.52;100.00;100692.83;3040904;77;20964;-61
2022/11/06 04:29:33;;;;;;;10.00;6.47;;;;;;;4.50;100.00;100696.00;3041635;77;21486;-62
2022/11/06 04:33:58;;;;;;;11.40;8.00;;;;;;;4.46;100.00;100698.41;2931923;79;21031;-60
2022/11/06 04:38:36;;;;;;;20.45;7.08;;;;;;;4.41;100.00;100699.95;2964792;78;21023;-64
2022/11/06 04:42:49;;;;;;;10.75;7.12;;;;;;;4.36;100.00;100690.56;2921135;79;21037;-62
2022/11/06 04:46:55;;;;;;;12.50;7.33;;;;;;;4.25;100.00;100696.36;2954122;79;20928;-62
2022/11/06 04:50:59;;;;;;;;;;;;;;;4.11;100.00;100689.14;2963226;79;21090;-62
2022/11/06 04:55:00;;;;;;;7.75;6.50;;;;;;;4.00;100.00;100690.97;2937914;79;20114;-62
2022/11/06 04:59:04;;;;;;;7.62;5.30;;;;;;;3.95;100.00;100698.24;2954521;79;21073;-62
2022/11/06 05:03:06;;;;;;;8.10;5.65;;;;;;;3.93;100.00;100689.54;2958624;78;21066;-62
2022/11/06 05:07:13;;;;;;;11.12;6.95;;;;;;;3.99;100.00;100689.27;2965449;78;21046;-64
2022/11/06 05:11:17;;;;;;;9.00;5.17;;;;;;;4.06;100.00;100682.77;3008716;77;20923;-63
2022/11/06 05:15:18;;;;;;;9.75;6.03;;;;;;;3.98;100.00;100680.50;2997283;77;21094;-62
2022/11/06 05:19:19;;;;;;;9.98;5.17;;;;;;;3.97;100.00;100674.02;3034501;77;20998;-62
2022/11/06 05:23:21;;;;;;;7.87;5.17;;;;;;;3.96;100.00;100673.63;3046575;77;20996;-65
2022/11/06 05:27:28;;;;;;;9.68;6.12;;;;;;;4.00;100.00;100673.86;3037498;77;21015;-62
2022/11/06 05:31:29;;;;;;;7.47;5.12;;;;;;;3.95;100.00;100671.92;3023278;76;21003;-63
2022/11/06 05:35:30;;;;;;;10.00;5.53;;;;;;;4.06;100.00;100674.03;2971500;77;21619;-62
2022/11/06 05:39:32;;;;;;;9.43;5.65;;;;;;;4.25;100.00;100675.29;3060315;77;21007;-64
2022/11/06 05:43:33;;;;;;;11.57;7.75;;;;;;;4.36;100.00;100674.31;3043269;76;21000;-62
2022/11/06 05:47:34;;;;;;;14.65;6.33;;;;;;;4.45;100.00;100676.95;3028170;77;21020;-63
2022/11/06 05:51:36;;;;;;;9.45;5.60;;;;;;;4.64;100.00;100668.95;3027000;77;21041;-62
2022/11/06 05:55:37;;;;;;;6.45;4.70;;;;;;;4.66;100.00;100665.77;3071428;76;21117;-64
2022/11/06 05:59:40;;;;;;;7.80;4.17;;;;;;;4.79;100.00;100671.74;2994173;77;21025;-61
2022/11/06 06:03:41;;;;;;;21.45;10.98;;;;;;;4.82;100.00;100667.17;3047724;77;21102;-62
2022/11/06 06:07:42;;;;;;;20.62;9.88;;;;;;;4.67;100.00;100672.75;3031175;77;21089;-62
2022/11/06 06:11:43;;;;;;;14.50;9.93;;;;;;;4.46;100.00;100673.38;3014717;77;20981;-63
2022/11/06 06:15:45;;;;;;;7.85;6.65;;;;;;;4.29;100.00;100671.57;2948382;76;20995;-63
2022/11/06 06:19:47;;;;;;;9.93;5.80;;;;;;;4.18;100.00;100675.22;3050033;76;20975;-64
2022/11/06 06:23:48;;;;;;;11.75;6.83;;;;;;;4.14;100.00;100681.95;3033107;76;21014;-62
2022/11/06 06:27:56;;;;;;;9.30;6.53;;;;;;;4.09;100.00;100685.25;3036958;77;21107;-64
2022/11/06 06:31:57;;;;;;;16.15;7.85;;;;;;;4.11;100.00;100699.19;2977709;78;20994;-61
2022/11/06 06:36:11;;;;;;;29.95;8.63;;;;;;;4.20;100.00;100697.05;2993768;77;21122;-62
2022/11/06 06:40:13;;;;;;;11.50;7.25;;;;;;;4.15;100.00;100697.27;2995072;79;20995;-61
2022/11/06 06:44:15;;;;;;;9.95;6.37;;;;;;;4.18;100.00;100694.96;2987266;79;20983;-62
2022/11/06 06:48:16;;;;;;;10.68;5.85;;;;;;;4.17;100.00;100703.79;2972539;78;20995;-64
2022/11/06 06:52:17;;;;;;;7.80;6.83;;;;;;;4.21;100.00;100706.17;2830774;80;20974;-62
2022/11/06 06:56:42;;;;;;;15.13;8.43;;;;;;;4.29;100.00;100703.17;2932805;80;21020;-63
2022/11/06 07:00:44;;;;;;;10.48;7.40;;;;;;;4.29;100.00;100707.99;2913215;77;21025;-64
2022/11/06 07:04:45;;;;;;;16.25;8.85;;;;;;;4.28;100.00;100713.32;3001487;77;20995;-63
2022/11/06 07:08:47;;;;;;;12.28;8.13;;;;;;;4.35;100.00;100713.43;3001220;77;20995;-62
2022/11/06 07:12:48;;;;;;;12.95;6.00;;;;;;;4.39;100.00;100711.48;3047449;77;21062;-62
2022/11/06 07:16:50;;;;;;;12.73;6.28;;;;;;;4.55;100.00;100707.64;3042903;77;21497;-62
2022/11/06 07:21:07;;;;;;;9.08;5.78;;;;;;;4.77;100.00;100706.55;3016899;77;20935;-62
2022/11/06 07:25:08;;;;;;;8.23;6.15;;;;;;;4.98;100.00;100705.45;3008865;76;72040;-91
2022/11/06 07:29:10;;;;;;;9.83;7.95;;;;;;;5.35;100.00;100710.56;3011104;77;21060;-94
2022/11/06 07:33:11;;;;;;;15.30;7.92;;;;;;;5.69;100.00;100696.02;2981551;77;20988;-93
2022/11/06 07:37:13;;;;;;;8.03;6.65;;;;;;;6.04;100.00;100685.80;2952098;78;20979;-91
2022/11/06 07:41:14;;;;;;;17.75;7.72;;;;;;;6.24;100.00;100685.97;2914445;78;20964;-90
2022/11/06 07:45:16;;;;;;;12.03;7.05;;;;;;;6.38;100.00;100680.75;2944654;78;20999;-91
2022/11/06 07:49:17;;;;;;;9.45;6.10;;;;;;;6.53;100.00;100679.48;2946279;79;20975;-90
2022/11/06 07:53:19;;;;;;;14.50;8.18;;;;;;;6.84;100.00;100683.80;2931954;77;21059;-91
2022/11/06 07:57:20;;;;;;;8.73;6.50;;;;;;;7.20;100.00;100684.78;2904355;78;20996;-91
2022/11/06 08:01:21;;;;;;;8.65;5.40;;;;;;;7.57;100.00;100681.17;2889374;79;20991;-89
2022/11/06 08:05:22;;;;;;;16.85;8.35;;;;;;;7.93;100.00;100683.72;2931440;78;21054;-90
2022/11/06 08:09:24;;;;;;;8.23;4.85;;;;;;;8.27;100.00;100679.38;2915910;79;21545;-88
2022/11/06 08:13:25;;;;;;;9.23;5.28;;;;;;;8.49;100.00;100676.12;2929747;78;21010;-91
2022/11/06 08:17:28;;;;;;;9.25;4.90;;;;;;;8.74;100.00;100671.84;2932151;78;21012;-92
2022/11/06 08:21:30;;;;;;;10.53;4.45;;;;;;;8.96;100.00;100677.03;2962456;77;21042;-94
2022/11/06 08:25:37;;;;;;;10.18;5.55;;;;;;;9.17;100.00;100683.13;2933046;77;20987;-92
2022/11/06 08:29:38;;;;;;;5.90;5.00;;;;;;;9.34;100.00;100680.61;2950393;77;21030;-92
2022/11/06 08:33:40;;;;;;;7.70;5.28;;;;;;;9.50;100.00;100685.67;2967450;78;21047;-95
2022/11/06 08:37:41;;;;;;;12.40;5.37;;;;;;;9.66;100.00;100686.78;2895605;77;21003;-96
2022/11/06 08:41:44;;;;;;;10.93;7.15;;;;;;;9.81;98.97;100685.65;2963118;77;20968;-94
2022/11/06 08:45:45;;;;;;;13.43;7.37;;;;;;;9.95;100.00;100681.15;2989116;78;21054;-93
2022/11/06 08:49:46;;;;;;;14.33;6.83;;;;;;;10.06;98.94;100679.89;2965793;77;20952;-93
2022/11/06 08:53:48;;;;;;;18.82;13.18;;;;;;;10.24;99.73;100679.00;2944225;79;20998;-90
2022/11/06 08:57:49;;;;;;;22.73;11.57;;;;;;;10.40;99.64;100672.08;2946148;78;20996;-90
2022/11/06 09:01:50;;;;;;;13.93;8.45;;;;;;;10.66;100.00;100675.06;2944989;79;21455;-92
2022/11/06 09:05:52;;;;;;;15.20;7.20;;;;;;;10.89;98.12;100675.98;2944368;79;21018;-91
2022/11/06 09:09:53;;;;;;;27.98;15.65;;;;;;;10.99;95.28;100667.63;2861173;79;20986;-91
2022/11/06 09:13:56;;;;;;;16.62;9.05;;;;;;;11.19;95.50;100666.55;2912614;78;20995;-90
2022/11/06 09:17:58;;;;;;;21.82;14.20;;;;;;;11.37;94.33;100666.94;2934105;79;21534;-91
2022/11/06 09:21:59;;;;;;;9.80;6.85;;;;;;;11.65;97.05;100671.88;2931150;80;20985;-91
2022/11/06 09:26:00;;;;;;;15.15;10.85;;;;;;;11.85;92.92;100670.25;2930030;79;21055;-90
2022/11/06 09:30:02;;;;;;;14.93;13.43;;;;;;;11.95;89.29;100670.34;2953848;78;21557;-91
2022/11/06 09:34:03;;;;;;;11.55;7.62;;;;;;;11.85;85.23;100669.78;2952116;79;21627;-92
2022/11/06 09:38:11;;;;;;;9.53;6.45;;;;;;;12.04;87.06;100669.64;2954532;78;21011;-90
2022/11/06 09:42:36;;;;;;;15.20;10.93;;;;;;;12.12;84.69;100665.02;2959436;78;20987;-92
2022/11/06 09:46:45;;;;;;;11.50;5.75;;;;;;;12.07;85.18;100663.19;2843356;80;21016;-90
2022/11/06 09:50:52;;;;;;;12.20;7.60;;;;;;;12.23;84.79;100659.62;2819486;80;21645;-90
2022/11/06 09:55:04;;;;;;;8.55;6.78;;;;;;;12.18;83.47;100656.97;2854550;81;20998;-90
2022/11/06 09:59:13;;;;;;;9.78;4.92;;;;;;;12.45;83.36;100655.15;2820445;82;21519;-90
2022/11/06 10:03:34;;;;;;;10.63;5.75;;;;;;;12.47;80.17;100647.03;2837989;81;21076;-92
2022/11/06 10:07:39;;;;;;;6.12;5.05;;;;;;;12.34;80.39;100647.22;2889354;80;21024;-91
2022/11/06 10:12:07;;;;;;;15.43;7.83;;;;;;;12.41;82.76;100639.05;2874733;80;21061;-91
2022/11/06 10:16:41;;;;;;;12.82;6.87;;;;;;;12.22;81.17;100640.59;2876832;80;21051;-91
2022/11/06 10:20:56;;;;;;;8.65;5.47;;;;;;;12.22;81.63;100623.76;2908024;77;21037;-91
2022/11/06 10:25:20;;;;;;;12.05;7.00;;;;;;;12.25;81.78;100618.16;2983591;77;21530;-91
2022/11/06 10:29:54;;;;;;;22.27;13.03;;;;;;;12.12;80.30;100604.51;3004085;77;21109;-90
2022/11/06 10:34:10;;;;;;;24.25;14.15;;;;;;;12.23;81.53;100606.27;2977941;77;21058;-89
2022/11/06 10:38:16;;;;;;;18.50;10.38;;;;;;;12.34;82.46;100598.70;2982755;77;20987;-90
2022/11/06 10:42:21;;;;;;;34.73;18.70;;;;;;;12.33;80.65;100595.67;2998950;76;20996;-89
2022/11/06 10:46:49;;;;;;;21.03;11.03;;;;;;;12.45;84.02;100595.12;3021126;77;20948;-87
2022/11/06 10:51:35;;;;;;;10.18;7.37;;;;;;;12.43;83.40;100586.41;2986091;77;20940;-89
2022/11/06 10:56:01;;;;;;;9.93;6.47;;;;;;;12.46;85.25;100579.47;2979022;78;20966;-87
2022/11/06 11:00:05;;;;;;;22.82;12.23;;;;;;;12.34;84.81;100564.53;2972259;77;21038;-90
2022/11/06 11:04:06;;;;;;;18.60;10.65;;;;;;;12.49;84.61;100559.70;2923018;78;21018;-88
2022/11/06 11:08:36;;;;;;;15.05;10.08;;;;;;;12.47;86.68;100553.14;2973474;76;20994;-89
2022/11/06 11:12:37;;;;;;;16.20;8.33;;;;;;;12.62;83.88;100541.66;2862229;81;21078;-89
2022/11/06 11:16:43;;;;;;;20.00;11.12;;;;;;;12.75;83.12;100534.76;2847089;81;21007;-90
2022/11/06 11:20:51;;;;;;;26.60;15.48;;;;;;;12.71;83.05;100525.34;2863897;80;21036;-91
2022/11/06 11:25:07;;;;;;;10.53;6.00;;;;;;;12.89;84.41;100524.20;2839095;81;21778;-89
2022/11/06 11:29:25;;;;;;;10.98;7.08;;;;;;;12.79;82.81;100516.66;2875466;80;21500;-90
2022/11/06 11:33:27;;;;;;;12.60;7.53;;;;;;;12.68;82.35;100503.75;2863402;80;21051;-90
2022/11/06 11:37:34;;;;;;;9.98;5.55;;;;;;;12.81;83.74;100502.18;2864873;81;21007;-90
2022/11/06 11:41:39;;;;;;;17.65;9.05;;;;;;;12.70;82.56;100492.45;2901764;79;21035;-89
2022/11/06 11:45:42;;;;;;;13.50;8.15;;;;;;;12.88;84.90;100487.80;2870501;80;21008;-89
2022/11/06 11:49:44;;;;;;;10.10;5.17;;;;;;;12.97;83.03;100490.15;2834099;80;21022;-89
2022/11/06 11:53:45;;;;;;;19.98;13.20;;;;;;;12.96;82.17;100483.95;2978531;77;21007;-89
2022/11/06 11:57:50;;;;;;;21.57;11.85;;;;;;;13.10;83.66;100480.55;2988390;78;20980;-89
2022/11/06 12:01:52;;;;;;;34.03;20.50;;;;;;;13.05;81.52;100481.45;2918741;78;20967;-90
2022/11/06 12:06:08;;;;;;;15.38;9.43;;;;;;;13.12;81.47;100470.57;2954517;78;21538;-90
2022/11/06 12:10:35;;;;;;;11.25;6.83;;;;;;;13.15;82.16;100466.28;2983087;78;20988;-90
2022/11/06 12:14:37;;;;;;;6.62;5.65;;;;;;;13.21;83.34;100464.41;3016688;77;20960;-91
2022/11/06 12:18:46;;;;;;;12.50;8.53;;;;;;;13.32;82.65;100455.91;2959880;78;20941;-91
2022/11/06 12:22:50;;;;;;;13.25;7.40;;;;;;;13.37;83.13;100446.48;2935846;78;21007;-91
2022/11/06 12:27:03;;;;;;;8.10;5.30;;;;;;;13.38;82.25;100442.00;2966907;76;21975;-90
2022/11/06 12:31:16;;;;;;;13.13;5.95;;;;;;;13.35;81.00;100439.59;2981553;77;20999;-89
2022/11/06 12:35:35;;;;;;;7.72;6.20;;;;;;;13.35;82.30;100430.23;2953146;77;20999;-89
2022/11/06 12:39:39;;;;;;;12.35;7.40;;;;;;;13.32;83.18;100431.38;2988100;77;21491;-90
2022/11/06 12:43:47;;;;;;;8.78;7.53;;;;;;;13.35;83.94;100425.75;2948020;77;21431;-89
2022/11/06 12:47:54;;;;;;;18.57;12.05;;;;;;;13.32;81.65;100420.70;2938165;79;21047;-89
2022/11/06 12:52:15;;;;;;;16.57;8.70;;;;;;;13.32;82.95;100411.34;2975951;77;21020;-90
2022/11/06 12:56:25;;;;;;;16.67;10.18;;;;;;;13.41;83.87;100408.32;2986684;77;21651;-88
2022/11/06 13:00:51;;;;;;;9.78;5.75;;;;;;;13.38;83.22;100413.95;2953056;78;21025;-89
2022/11/06 13:05:43;;;;;;;6.95;5.25;;;;;;;13.40;84.12;100397.28;2946867;79;20995;-90
2022/11/06 13:09:59;;;;;;;11.60;5.72;;;;;;;13.43;84.29;100392.52;2914656;78;21016;-89
2022/11/06 13:14:33;;;;;;;7.95;5.87;;;;;;;13.41;82.20;100397.63;2979228;77;20999;-89
2022/11/06 13:18:54;;;;;;;8.78;5.37;;;;;;;13.36;84.17;100390.03;2910087;80;21514;-89
2022/11/06 13:23:19;;;;;;;8.78;3.50;;;;;;;13.33;82.25;100386.80;2834317;81;21070;-90
2022/11/06 13:27:52;;;;;;;5.67;3.77;;;;;;;13.31;82.78;100394.97;2853551;80;20969;-88
2022/11/06 13:32:02;;;;;;;11.03;3.92;;;;;;;13.36;83.76;100395.86;2972818;78;21024;-91
2022/11/06 13:36:06;;;;;;;9.18;3.72;;;;;;;13.34;83.10;100390.67;2959193;78;21046;-90
2022/11/06 13:40:34;;;;;;;11.20;3.65;;;;;;;13.37;83.10;100385.04;3002183;76;21007;-90
2022/11/06 13:44:35;;;;;;;7.20;4.67;;;;;;;13.21;80.55;100388.29;3006627;76;21070;-89
2022/11/06 13:48:53;;;;;;;8.85;4.78;;;;;;;13.22;80.72;100376.62;3026005;75;21039;-89
2022/11/06 13:53:03;;;;;;;12.03;8.53;;;;;;;13.28;80.89;100376.05;2967999;78;21438;-90
2022/11/06 14:02:02;;;;;;;13.10;6.00;;;;;;;13.39;82.38;100366.20;2807017;82;21070;-90
2022/11/06 14:06:22;;;;;;;7.85;3.92;;;;;;;13.37;82.78;100364.17;2812563;82;21103;-91
2022/11/06 14:10:30;;;;;;;46.45;23.27;;;;;;;13.32;81.47;100359.73;2837623;81;21141;-87
2022/11/06 14:14:33;;;;;;;162.50;87.15;;;;;;;13.31;81.95;100353.56;2817572;81;21007;-87
2022/11/06 14:18:40;;;;;;;154.12;86.65;;;;;;;13.14;83.72;100353.28;2843244;81;21003;-88
2022/11/06 14:22:41;;;;;;;182.22;98.87;;;;;;;13.00;83.04;100353.22;2822062;81;21008;-91
2022/11/06 14:26:48;;;;;;;26.42;15.50;;;;;;;12.98;83.02;100350.33;2865834;80;21582;-92
2022/11/06 14:30:49;;;;;;;12.90;7.75;;;;;;;12.89;82.19;100345.33;2819607;83;21029;-93
2022/11/06 14:34:51;;;;;;;13.75;6.15;;;;;;;12.78;82.36;100350.81;2790301;82;20995;-92
2022/11/06 14:38:53;;;;;;;9.68;6.30;;;;;;;12.70;81.82;100347.00;2895943;79;21031;-93
2022/11/06 14:42:55;;;;;;;11.68;7.47;;;;;;;12.57;82.01;100351.27;2963848;78;21543;-93
2022/11/06 14:47:01;;;;;;;7.72;6.67;;;;;;;12.40;82.82;100348.77;2953136;79;20979;-92
2022/11/06 14:51:07;;;;;;;12.90;8.35;;;;;;;12.34;83.33;100345.30;2917175;79;21066;-92
2022/11/06 14:55:29;;;;;;;13.58;8.00;;;;;;;12.23;83.90;100342.75;2961247;78;20980;-92
2022/11/06 14:59:39;;;;;;;14.58;7.12;;;;;;;12.17;84.51;100341.94;2931676;77;21041;-92
2022/11/06 15:04:03;;;;;;;15.65;7.08;;;;;;;12.12;85.15;100340.52;2910727;78;21000;-90
2022/11/06 15:08:05;;;;;;;20.43;11.55;;;;;;;12.06;86.25;100329.08;2905198;78;21112;-89
2022/11/06 15:12:07;;;;;;;27.42;17.55;;;;;;;11.90;86.86;100331.35;2918517;77;21047;-89
2022/11/06 15:16:11;;;;;;;43.55;25.92;;;;;;;11.71;87.42;100340.94;2949333;77;21051;-90
2022/11/06 15:20:20;;;;;;;41.70;21.70;;;;;;;11.58;88.15;100329.16;2961837;77;20991;-88
2022/11/06 15:24:30;;;;;;;19.50;12.00;;;;;;;11.40;88.42;100331.08;2937929;78;20983;-89
2022/11/06 15:28:48;;;;;;;37.73;21.50;;;;;;;11.07;89.63;100330.78;2922465;78;21006;-89
2022/11/06 15:32:52;;;;;;;61.05;35.80;;;;;;;10.82;90.33;100326.17;2969613;77;21596;-87
2022/11/06 15:37:12;;;;;;;33.55;17.65;;;;;;;10.59;91.96;100320.89;3017701;76;21557;-86
2022/11/06 15:41:27;;;;;;;26.97;16.73;;;;;;;10.26;94.24;100311.50;3005500;77;20959;-87
2022/11/06 15:45:33;;;;;;;16.02;11.55;;;;;;;10.09;94.81;100308.02;2984990;77;21019;-88
2022/11/06 15:49:36;;;;;;;15.80;10.60;;;;;;;9.83;96.25;100314.45;3013077;76;21069;-87
2022/11/06 15:53:40;;;;;;;20.95;13.88;;;;;;;9.67;96.57;100298.84;2989189;77;21015;-87
2022/11/06 15:57:41;;;;;;;19.77;11.85;;;;;;;9.54;96.29;100289.66;3036688;77;20967;-88
2022/11/06 16:01:48;;;;;;;21.37;12.50;;;;;;;9.41;97.09;100290.23;2957140;77;21079;-88
2022/11/06 16:05:50;;;;;;;17.20;10.98;;;;;;;9.33;98.01;100293.98;2977581;77;21053;-87
2022/11/06 16:09:52;;;;;;;15.03;9.55;;;;;;;9.27;98.33;100291.30;3012523;76;21008;-87
2022/11/06 16:13:55;;;;;;;19.37;12.30;;;;;;;9.21;99.23;100291.28;2979212;77;21023;-86
2022/11/06 16:18:05;;;;;;;53.73;25.68;;;;;;;9.19;99.43;100281.27;2966037;77;21730;-86
2022/11/06 16:22:14;;;;;;;39.40;22.70;;;;;;;9.04;100.00;100282.42;2998654;77;20986;-87
2022/11/06 16:26:35;;;;;;;63.42;34.83;;;;;;;8.94;100.00;100285.79;2995731;76;21510;-86
2022/11/06 16:30:37;;;;;;;90.83;41.65;;;;;;;8.88;100.00;100288.91;2987155;77;20959;-86
2022/11/06 16:34:45;;;;;;;61.45;37.98;;;;;;;8.75;100.00;100280.17;2925239;77;20976;-87
2022/11/06 16:38:48;;;;;;;40.05;25.27;;;;;;;8.54;100.00;100275.00;2994150;76;21043;-86
2022/11/06 16:43:02;;;;;;;21.97;16.65;;;;;;;8.39;100.00;100273.47;2979396;77;20978;-87
2022/11/06 16:47:12;;;;;;;68.05;40.38;;;;;;;8.34;100.00;100275.12;3014377;77;20980;-85
2022/11/06 16:51:26;;;;;;;23.52;13.03;;;;;;;8.17;100.00;100268.40;2980814;76;20939;-86
2022/11/06 16:55:29;;;;;;;27.32;17.30;;;;;;;8.10;100.00;100262.69;3022315;76;21008;-87
2022/11/06 16:59:30;;;;;;;22.05;13.55;;;;;;;8.08;100.00;100267.26;2961675;78;21011;-88
2022/11/06 17:03:44;;;;;;;17.12;11.28;;;;;;;8.07;100.00;100260.73;3012608;76;21048;-88
2022/11/06 17:07:46;;;;;;;15.88;10.70;;;;;;;7.97;100.00;100265.84;3004288;77;21011;-88
2022/11/06 17:11:53;;;;;;;16.42;10.78;;;;;;;7.96;100.00;100258.85;3011018;78;20983;-88
2022/11/06 17:15:58;;;;;;;17.60;13.60;;;;;;;7.93;100.00;100256.43;2986905;76;31049;-88
2022/11/06 17:20:02;;;;;;;15.48;13.70;;;;;;;7.86;100.00;100259.52;2934098;77;21579;-88
2022/11/06 17:24:05;;;;;;;32.00;17.62;;;;;;;7.79;100.00;100262.22;2976479;77;21070;-87
2022/11/06 17:28:09;;;;;;;23.18;15.13;;;;;;;7.83;100.00;100263.69;2988865;76;21165;-86
2022/11/06 17:32:10;;;;;;;21.52;13.75;;;;;;;7.92;100.00;100264.01;2991761;76;21019;-87
2022/11/06 17:36:23;;;;;;;20.37;13.45;;;;;;;7.95;100.00;100258.48;2971739;76;21015;-88
2022/11/06 17:40:25;;;;;;;30.72;22.17;;;;;;;7.86;100.00;100256.88;2920701;78;20967;-87
2022/11/06 17:44:28;;;;;;;49.25;25.70;;;;;;;7.82;100.00;100253.22;2844241;79;20949;-89
2022/11/06 17:48:29;;;;;;;35.10;23.22;;;;;;;7.74;100.00;100252.44;2937474;79;21026;-89
2022/11/06 17:52:31;;;;;;;33.30;24.47;;;;;;;7.77;100.00;100253.54;2915040;79;20984;-89
2022/11/06 17:56:32;;;;;;;26.20;17.77;;;;;;;7.61;100.00;100256.89;2908788;79;20976;-88
2022/11/06 18:00:36;;;;;;;22.55;14.33;;;;;;;7.52;100.00;100248.66;2935736;78;21052;-89
2022/11/06 18:04:40;;;;;;;22.98;15.03;;;;;;;7.33;100.00;100245.09;2924456;79;21019;-89
2022/11/06 18:08:42;;;;;;;32.73;20.43;;;;;;;7.21;100.00;100244.14;2940594;79;20999;-89
2022/11/06 18:12:44;;;;;;;41.33;26.23;;;;;;;7.22;100.00;100239.22;2911038;79;21067;-88
2022/11/06 18:16:46;;;;;;;35.88;22.77;;;;;;;7.25;100.00;100244.79;2931366;78;21043;-87
2022/11/06 18:20:47;;;;;;;36.48;22.98;;;;;;;7.31;100.00;100254.11;2962762;78;21003;-88
2022/11/06 18:24:49;;;;;;;44.38;32.63;;;;;;;7.35;100.00;100255.59;2946012;79;21920;-88
2022/11/06 18:28:50;;;;;;;47.15;31.07;;;;;;;7.45;100.00;100259.28;2945783;79;20986;-86
2022/11/06 18:32:52;;;;;;;33.85;22.30;;;;;;;7.51;100.00;100248.75;2949731;78;21019;-87
2022/11/06 18:36:53;;;;;;;30.02;19.17;;;;;;;7.37;100.00;100241.77;2904849;78;20994;-87
2022/11/06 18:40:55;;;;;;;55.00;32.90;;;;;;;7.20;100.00;100243.77;2892889;78;20997;-86
2022/11/06 18:44:57;;;;;;;76.40;43.50;;;;;;;7.15;100.00;100247.22;2936256;78;21741;-87
2022/11/06 18:48:59;;;;;;;128.45;64.82;;;;;;;7.05;100.00;100251.42;2947231;79;20982;-87
2022/11/06 18:53:02;;;;;;;106.90;50.30;;;;;;;6.96;100.00;100248.92;2959083;78;21543;-88
2022/11/06 18:57:03;;;;;;;65.00;35.13;;;;;;;6.91;100.00;100247.08;2932720;78;20999;-89
2022/11/06 19:01:11;;;;;;;58.02;32.25;;;;;;;6.83;100.00;100244.48;2982895;77;21452;-89
2022/11/06 19:05:13;;;;;;;37.90;24.50;;;;;;;6.82;100.00;100237.95;2983919;77;21042;-88
2022/11/06 19:09:15;;;;;;;43.05;21.65;;;;;;;6.88;100.00;100228.31;2914566;77;21037;-88
2022/11/06 19:13:29;;;;;;;;;;;;;;;;;;;;;
2022/11/06 19:17:22;;;;;;;30.48;18.80;;;;;;;6.81;100.00;100219.08;2984142;77;21040;-89
2022/11/06 19:21:25;;;;;;;23.62;17.02;;;;;;;6.55;100.00;100218.55;3006867;77;21505;-89